sensor_id;sensor_type;location;lat;lon;timestamp;pressure;altitude;pressure_sealevel;temperature;humidity
19086;BME280;9675;51.538;6.728;2022-12-18T00:01:25;102536.69;;;-3.99;100.00
19086;BME280;9675;51.538;6.728;2022-12-18T00:04:00;102540.81;;;-3.99;100.00
19086;BME280;9675;51.538;6.728;2022-12-18T00:06:29;102549.75;;;-4.01;100.00
19086;BME280;9675;51.538;6.728;2022-12-18T00:08:57;102555.28;;;-4.04;100.00
19086;BME280;9675;51.538;6.728;2022-12-18T00:11:27;102546.63;;;-4.06;100.00
19086;BME280;9675;51.538;6.728;2022-12-18T00:13:57;102550.75;;;-4.06;100.00
19086;BME280;9675;51.538;6.728;2022-12-18T00:16:26;102536.16;;;-4.09;100.00
19086;BME280;9675;51.538;6.728;2022-12-18T00:18:57;102537.06;;;-4.08;100.00
19086;BME280;9675;51.538;6.728;2022-12-18T00:21:25;102522.97;;;-4.13;100.00
19086;BME280;9675;51.538;6.728;2022-12-18T00:23:53;102526.59;;;-4.11;100.00
19086;BME280;9675;51.538;6.728;2022-12-18T00:26:23;102510.69;;;-4.17;100.00
19086;BME280;9675;51.538;6.728;2022-12-18T00:28:51;102515.25;;;-4.15;100.00
19086;BME280;9675;51.538;6.728;2022-12-18T00:31:21;102508.88;;;-4.18;100.00
19086;BME280;9675;51.538;6.728;2022-12-18T00:33:49;102524.88;;;-4.18;100.00
19086;BME280;9675;51.538;6.728;2022-12-18T00:36:21;102522.34;;;-4.18;100.00
19086;BME280;9675;51.538;6.728;2022-12-18T00:38:48;102534.03;;;-4.18;100.00
19086;BME280;9675;51.538;6.728;2022-12-18T00:41:17;102528.09;;;-4.19;100.00
19086;BME280;9675;51.538;6.728;2022-12-18T00:44:07;102532.72;;;-4.22;100.00
19086;BME280;9675;51.538;6.728;2022-12-18T00:46:33;102547.28;;;-4.19;100.00
19086;BME280;9675;51.538;6.728;2022-12-18T00:49:01;102544.59;;;-4.21;100.00
19086;BME280;9675;51.538;6.728;2022-12-18T00:51:29;102534.94;;;-4.18;100.00
19086;BME280;9675;51.538;6.728;2022-12-18T00:53:56;102539.03;;;-4.18;100.00
19086;BME280;9675;51.538;6.728;2022-12-18T00:56:24;102530.59;;;-4.19;100.00
19086;BME280;9675;51.538;6.728;2022-12-18T00:58:51;102532.03;;;-4.21;100.00
19086;BME280;9675;51.538;6.728;2022-12-18T01:01:18;102532.19;;;-4.19;100.00
19086;BME280;9675;51.538;6.728;2022-12-18T01:03:45;102537.03;;;-4.21;100.00
19086;BME280;9675;51.538;6.728;2022-12-18T01:06:16;102535.22;;;-4.22;100.00
19086;BME280;9675;51.538;6.728;2022-12-18T01:08:44;102535.91;;;-4.23;100.00
19086;BME280;9675;51.538;6.728;2022-12-18T01:11:15;102522.25;;;-4.25;100.00
19086;BME280;9675;51.538;6.728;2022-12-18T01:13:43;102522.94;;;-4.26;100.00
19086;BME280;9675;51.538;6.728;2022-12-18T01:16:12;102518.63;;;-4.27;100.00
19086;BME280;9675;51.538;6.728;2022-12-18T01:18:39;102513.06;;;-4.24;100.00
19086;BME280;9675;51.538;6.728;2022-12-18T01:21:08;102520.84;;;-4.23;100.00
19086;BME280;9675;51.538;6.728;2022-12-18T01:23:36;102521.34;;;-4.25;100.00
19086;BME280;9675;51.538;6.728;2022-12-18T01:26:09;102529.06;;;-4.24;100.00
19086;BME280;9675;51.538;6.728;2022-12-18T01:28:37;102529.06;;;-4.24;100.00
19086;BME280;9675;51.538;6.728;2022-12-18T01:31:18;102526.38;;;-4.25;100.00
19086;BME280;9675;51.538;6.728;2022-12-18T01:33:45;102528.69;;;-4.27;100.00
19086;BME280;9675;51.538;6.728;2022-12-18T01:36:18;102533.69;;;-4.27;100.00
19086;BME280;9675;51.538;6.728;2022-12-18T01:38:47;102531.59;;;-4.24;100.00
19086;BME280;9675;51.538;6.728;2022-12-18T01:41:18;102529.28;;;-4.22;100.00
19086;BME280;9675;51.538;6.728;2022-12-18T01:43:50;102523.34;;;-4.23;100.00
19086;BME280;9675;51.538;6.728;2022-12-18T01:46:20;102514.41;;;-4.21;100.00
19086;BME280;9675;51.538;6.728;2022-12-18T01:48:52;102505.97;;;-4.21;100.00
19086;BME280;9675;51.538;6.728;2022-12-18T01:51:20;102516.72;;;-4.22;100.00
19086;BME280;9675;51.538;6.728;2022-12-18T01:53:48;102515.41;;;-4.26;100.00
19086;BME280;9675;51.538;6.728;2022-12-18T01:56:20;102521.81;;;-4.28;100.00
19086;BME280;9675;51.538;6.728;2022-12-18T01:58:55;102519.09;;;-4.30;100.00
19086;BME280;9675;51.538;6.728;2022-12-18T02:01:25;102521.44;;;-4.31;100.00
19086;BME280;9675;51.538;6.728;2022-12-18T02:03:53;102523.72;;;-4.33;100.00
19086;BME280;9675;51.538;6.728;2022-12-18T02:06:29;102523.50;;;-4.34;100.00
19086;BME280;9675;51.538;6.728;2022-12-18T02:09:12;102521.91;;;-4.34;100.00
19086;BME280;9675;51.538;6.728;2022-12-18T02:11:49;102527.84;;;-4.33;100.00
19086;BME280;9675;51.538;6.728;2022-12-18T02:14:24;102529.22;;;-4.35;100.00
19086;BME280;9675;51.538;6.728;2022-12-18T02:17:01;102531.97;;;-4.34;100.00
19086;BME280;9675;51.538;6.728;2022-12-18T02:19:46;102524.22;;;-4.35;100.00
19086;BME280;9675;51.538;6.728;2022-12-18T02:22:29;102521.50;;;-4.37;100.00
19086;BME280;9675;51.538;6.728;2022-12-18T02:25:16;102516.47;;;-4.37;100.00
19086;BME280;9675;51.538;6.728;2022-12-18T02:27:50;102508.25;;;-4.36;100.00
19086;BME280;9675;51.538;6.728;2022-12-18T02:30:19;102491.72;;;-4.46;100.00
19086;BME280;9675;51.538;6.728;2022-12-18T02:32:50;102503.31;;;-4.41;100.00
19086;BME280;9675;51.538;6.728;2022-12-18T02:35:23;102510.13;;;-4.40;100.00
19086;BME280;9675;51.538;6.728;2022-12-18T02:37:52;102516.56;;;-4.42;100.00
19086;BME280;9675;51.538;6.728;2022-12-18T02:40:26;102522.50;;;-4.42;100.00
19086;BME280;9675;51.538;6.728;2022-12-18T02:43:02;102517.25;;;-4.43;100.00
19086;BME280;9675;51.538;6.728;2022-12-18T02:45:29;102520.16;;;-4.40;100.00
19086;BME280;9675;51.538;6.728;2022-12-18T02:47:56;102515.13;;;-4.40;100.00
19086;BME280;9675;51.538;6.728;2022-12-18T02:50:32;102509.72;;;-4.43;100.00
19086;BME280;9675;51.538;6.728;2022-12-18T02:53:10;102513.34;;;-4.41;100.00
19086;BME280;9675;51.538;6.728;2022-12-18T02:55:56;102515.13;;;-4.40;100.00
19086;BME280;9675;51.538;6.728;2022-12-18T02:58:34;102514.25;;;-4.41;100.00
19086;BME280;9675;51.538;6.728;2022-12-18T03:01:15;102512.44;;;-4.42;100.00
19086;BME280;9675;51.538;6.728;2022-12-18T03:03:52;102524.78;;;-4.43;100.00
19086;BME280;9675;51.538;6.728;2022-12-18T03:06:26;102519.38;;;-4.46;100.00
19086;BME280;9675;51.538;6.728;2022-12-18T03:09:02;102510.91;;;-4.47;100.00
19086;BME280;9675;51.538;6.728;2022-12-18T03:11:34;102502.47;;;-4.47;100.00
19086;BME280;9675;51.538;6.728;2022-12-18T03:14:33;102490.13;;;-4.46;100.00
19086;BME280;9675;51.538;6.728;2022-12-18T03:17:03;102494.22;;;-4.46;100.00
19086;BME280;9675;51.538;6.728;2022-12-18T03:19:33;102493.31;;;-4.47;100.00
19086;BME280;9675;51.538;6.728;2022-12-18T03:22:03;102493.31;;;-4.47;100.00
19086;BME280;9675;51.538;6.728;2022-12-18T03:24:33;102493.31;;;-4.47;100.00
19086;BME280;9675;51.538;6.728;2022-12-18T03:27:10;102490.81;;;-4.47;100.00
19086;BME280;9675;51.538;6.728;2022-12-18T03:29:46;102490.31;;;-4.44;100.00
19086;BME280;9675;51.538;6.728;2022-12-18T03:32:23;102495.31;;;-4.44;100.00
19086;BME280;9675;51.538;6.728;2022-12-18T03:34:55;102496.03;;;-4.45;100.00
19086;BME280;9675;51.538;6.728;2022-12-18T03:37:25;102493.72;;;-4.44;100.00
19086;BME280;9675;51.538;6.728;2022-12-18T03:39:52;102488.31;;;-4.47;100.00
19086;BME280;9675;51.538;6.728;2022-12-18T03:42:27;102497.44;;;-4.47;100.00
19086;BME280;9675;51.538;6.728;2022-12-18T03:45:08;102488.09;;;-4.48;100.00
19086;BME280;9675;51.538;6.728;2022-12-18T03:47:43;102497.44;;;-4.47;100.00
19086;BME280;9675;51.538;6.728;2022-12-18T03:50:17;102499.97;;;-4.47;100.00
19086;BME280;9675;51.538;6.728;2022-12-18T03:52:51;102499.25;;;-4.46;100.00
19086;BME280;9675;51.538;6.728;2022-12-18T03:55:21;102488.31;;;-4.47;100.00
19086;BME280;9675;51.538;6.728;2022-12-18T03:57:52;102491.28;;;-4.49;100.00
19086;BME280;9675;51.538;6.728;2022-12-18T04:00:22;102494.22;;;-4.46;100.00
19086;BME280;9675;51.538;6.728;2022-12-18T04:02:53;102488.78;;;-4.49;100.00
19086;BME280;9675;51.538;6.728;2022-12-18T04:05:24;102483.75;;;-4.49;100.00
19086;BME280;9675;51.538;6.728;2022-12-18T04:07:54;102476.91;;;-4.50;100.00
19086;BME280;9675;51.538;6.728;2022-12-18T04:10:22;102479.84;;;-4.47;100.00
19086;BME280;9675;51.538;6.728;2022-12-18T04:12:49;102476.44;;;-4.48;100.00
19086;BME280;9675;51.538;6.728;2022-12-18T04:15:16;102484.66;;;-4.49;100.00
19086;BME280;9675;51.538;6.728;2022-12-18T04:17:48;102472.47;;;-4.58;100.00
19086;BME280;9675;51.538;6.728;2022-12-18T04:20:16;102482.75;;;-4.57;100.00
19086;BME280;9675;51.538;6.728;2022-12-18T04:22:44;102483.13;;;-4.54;100.00
19086;BME280;9675;51.538;6.728;2022-12-18T04:25:12;102476.09;;;-4.56;100.00
19086;BME280;9675;51.538;6.728;2022-12-18T04:27:39;102475.69;;;-4.59;100.00
19086;BME280;9675;51.538;6.728;2022-12-18T04:30:07;102464.53;;;-4.61;100.00
19086;BME280;9675;51.538;6.728;2022-12-18T04:32:35;102467.91;;;-4.61;100.00
19086;BME280;9675;51.538;6.728;2022-12-18T04:35:04;102470.44;;;-4.61;100.00
19086;BME280;9675;51.538;6.728;2022-12-18T04:37:34;102469.56;;;-4.61;100.00
19086;BME280;9675;51.538;6.728;2022-12-18T04:40:05;102466.31;;;-4.60;100.00
19086;BME280;9675;51.538;6.728;2022-12-18T04:42:32;102462.41;;;-4.58;100.00
19086;BME280;9675;51.538;6.728;2022-12-18T04:44:59;102459.59;;;-4.54;100.00
19086;BME280;9675;51.538;6.728;2022-12-18T04:47:26;102462.34;;;-4.53;100.00
19086;BME280;9675;51.538;6.728;2022-12-18T04:49:53;102452.69;;;-4.50;100.00
19086;BME280;9675;51.538;6.728;2022-12-18T04:52:21;102464.78;;;-4.47;100.00
19086;BME280;9675;51.538;6.728;2022-12-18T04:54:48;102459.75;;;-4.47;100.00
19086;BME280;9675;51.538;6.728;2022-12-18T04:57:15;102459.53;;;-4.49;100.00
19086;BME280;9675;51.538;6.728;2022-12-18T04:59:44;102460.94;;;-4.51;100.00
19086;BME280;9675;51.538;6.728;2022-12-18T05:02:11;102458.63;;;-4.49;100.00
19086;BME280;9675;51.538;6.728;2022-12-18T05:04:38;102454.50;;;-4.49;100.00
19086;BME280;9675;51.538;6.728;2022-12-18T05:07:05;102443.53;;;-4.49;100.00
19086;BME280;9675;51.538;6.728;2022-12-18T05:09:34;102438.13;;;-4.52;100.00
19086;BME280;9675;51.538;6.728;2022-12-18T05:12:01;102439.94;;;-4.51;100.00
19086;BME280;9675;51.538;6.728;2022-12-18T05:14:28;102444.53;;;-4.54;100.00
19086;BME280;9675;51.538;6.728;2022-12-18T05:16:55;102443.34;;;-4.51;100.00
19086;BME280;9675;51.538;6.728;2022-12-18T05:19:22;102455.72;;;-4.52;100.00
19086;BME280;9675;51.538;6.728;2022-12-18T05:21:49;102455.72;;;-4.52;100.00
19086;BME280;9675;51.538;6.728;2022-12-18T05:24:16;102454.59;;;-4.54;100.00
19086;BME280;9675;51.538;6.728;2022-12-18T05:26:44;102452.28;;;-4.53;100.00
19086;BME280;9675;51.538;6.728;2022-12-18T05:29:11;102451.78;;;-4.50;100.00
19086;BME280;9675;51.538;6.728;2022-12-18T05:31:39;102449.25;;;-4.50;100.00
19086;BME280;9675;51.538;6.728;2022-12-18T05:34:06;102457.53;;;-4.51;100.00
19086;BME280;9675;51.538;6.728;2022-12-18T05:36:33;102467.59;;;-4.51;100.00
19086;BME280;9675;51.538;6.728;2022-12-18T05:39:00;102459.53;;;-4.49;100.00
19086;BME280;9675;51.538;6.728;2022-12-18T05:41:27;102461.13;;;-4.49;100.00
19086;BME280;9675;51.538;6.728;2022-12-18T05:43:55;102467.06;;;-4.49;100.00
19086;BME280;9675;51.538;6.728;2022-12-18T05:46:22;102468.66;;;-4.49;100.00
19086;BME280;9675;51.538;6.728;2022-12-18T05:48:49;102481.66;;;-4.46;100.00
19086;BME280;9675;51.538;6.728;2022-12-18T05:51:20;102480.94;;;-4.45;100.00
19086;BME280;9675;51.538;6.728;2022-12-18T05:53:48;102498.28;;;-4.41;100.00
19086;BME280;9675;51.538;6.728;2022-12-18T05:56:22;102490.00;;;-4.40;100.00
19086;BME280;9675;51.538;6.728;2022-12-18T05:58:52;102493.66;;;-4.38;100.00
19086;BME280;9675;51.538;6.728;2022-12-18T06:01:23;102504.59;;;-4.38;100.00
19086;BME280;9675;51.538;6.728;2022-12-18T06:03:51;102516.56;;;-4.42;100.00
19086;BME280;9675;51.538;6.728;2022-12-18T06:06:21;102507.50;;;-4.47;100.00
19086;BME280;9675;51.538;6.728;2022-12-18T06:08:50;102510.00;;;-4.47;100.00
19086;BME280;9675;51.538;6.728;2022-12-18T06:11:20;102516.63;;;-4.48;100.00
19086;BME280;9675;51.538;6.728;2022-12-18T06:13:50;102511.69;;;-4.53;100.00
19086;BME280;9675;51.538;6.728;2022-12-18T06:16:17;102512.38;;;-4.54;100.00
19086;BME280;9675;51.538;6.728;2022-12-18T06:18:45;102519.22;;;-4.53;100.00
19086;BME280;9675;51.538;6.728;2022-12-18T06:21:12;102496.69;;;-4.59;100.00
19086;BME280;9675;51.538;6.728;2022-12-18T06:23:40;102507.78;;;-4.51;100.00
19086;BME280;9675;51.538;6.728;2022-12-18T06:26:10;102499.34;;;-4.52;100.00
19086;BME280;9675;51.538;6.728;2022-12-18T06:28:37;102505.97;;;-4.52;100.00
19086;BME280;9675;51.538;6.728;2022-12-18T06:31:05;102500.72;;;-4.54;100.00
19086;BME280;9675;51.538;6.728;2022-12-18T06:33:33;102498.44;;;-4.52;100.00
19086;BME280;9675;51.538;6.728;2022-12-18T06:36:04;102502.56;;;-4.53;100.00
19086;BME280;9675;51.538;6.728;2022-12-18T06:38:33;102495.69;;;-4.54;100.00
19086;BME280;9675;51.538;6.728;2022-12-18T06:41:00;102491.59;;;-4.53;100.00
19086;BME280;9675;51.538;6.728;2022-12-18T06:43:27;102479.72;;;-4.54;100.00
19086;BME280;9675;51.538;6.728;2022-12-18T06:45:59;102482.00;;;-4.56;100.00
19086;BME280;9675;51.538;6.728;2022-12-18T06:48:26;102480.69;;;-4.59;100.00
19086;BME280;9675;51.538;6.728;2022-12-18T06:50:53;102474.28;;;-4.57;100.00
19086;BME280;9675;51.538;6.728;2022-12-18T06:53:21;102468.84;;;-4.60;100.00
19086;BME280;9675;51.538;6.728;2022-12-18T06:55:48;102468.44;;;-4.63;100.00
19086;BME280;9675;51.538;6.728;2022-12-18T06:58:15;102457.00;;;-4.61;100.00
19086;BME280;9675;51.538;6.728;2022-12-18T07:00:43;102455.19;;;-4.62;100.00
19086;BME280;9675;51.538;6.728;2022-12-18T07:03:10;102448.34;;;-4.63;100.00
19086;BME280;9675;51.538;6.728;2022-12-18T07:05:40;102450.16;;;-4.62;100.00
19086;BME280;9675;51.538;6.728;2022-12-18T07:08:08;102458.38;;;-4.63;100.00
19086;BME280;9675;51.538;6.728;2022-12-18T07:10:42;102445.91;;;-4.69;100.00
19086;BME280;9675;51.538;6.728;2022-12-18T07:13:09;102460.69;;;-4.65;100.00
19086;BME280;9675;51.538;6.728;2022-12-18T07:15:36;102467.31;;;-4.65;100.00
19086;BME280;9675;51.538;6.728;2022-12-18T07:18:04;102453.44;;;-4.69;100.00
19086;BME280;9675;51.538;6.728;2022-12-18T07:20:31;102461.88;;;-4.68;100.00
19086;BME280;9675;51.538;6.728;2022-12-18T07:22:58;102464.41;;;-4.68;100.00
19086;BME280;9675;51.538;6.728;2022-12-18T07:25:25;102449.81;;;-4.71;100.00
19086;BME280;9675;51.538;6.728;2022-12-18T07:27:54;102457.56;;;-4.69;100.00
19086;BME280;9675;51.538;6.728;2022-12-18T07:30:21;102449.81;;;-4.71;100.00
19086;BME280;9675;51.538;6.728;2022-12-18T07:32:47;102445.75;;;-4.76;100.00
19086;BME280;9675;51.538;6.728;2022-12-18T07:35:15;102439.84;;;-4.77;100.00
19086;BME280;9675;51.538;6.728;2022-12-18T07:37:42;102451.69;;;-4.76;100.00
19086;BME280;9675;51.538;6.728;2022-12-18T07:40:10;102445.97;;;-4.75;100.00
19086;BME280;9675;51.538;6.728;2022-12-18T07:42:38;102449.19;;;-4.76;100.00
19086;BME280;9675;51.538;6.728;2022-12-18T07:45:07;102456.72;;;-4.76;100.00
19086;BME280;9675;51.538;6.728;2022-12-18T07:47:35;102450.59;;;-4.78;100.00
19086;BME280;9675;51.538;6.728;2022-12-18T07:50:04;102459.94;;;-4.77;100.00
19086;BME280;9675;51.538;6.728;2022-12-18T07:52:31;102460.66;;;-4.78;100.00
19086;BME280;9675;51.538;6.728;2022-12-18T07:54:58;102462.25;;;-4.78;100.00
19086;BME280;9675;51.538;6.728;2022-12-18T07:57:25;102439.50;;;-4.85;100.00
19086;BME280;9675;51.538;6.728;2022-12-18T07:59:52;102455.63;;;-4.78;100.00
19086;BME280;9675;51.538;6.728;2022-12-18T08:02:20;102451.28;;;-4.79;100.00
19086;BME280;9675;51.538;6.728;2022-12-18T08:04:47;102441.03;;;-4.80;100.00
19086;BME280;9675;51.538;6.728;2022-12-18T08:07:14;102438.53;;;-4.80;100.00
19086;BME280;9675;51.538;6.728;2022-12-18T08:09:41;102433.09;;;-4.83;100.00
19086;BME280;9675;51.538;6.728;2022-12-18T08:12:08;102435.09;;;-4.81;100.00
19086;BME280;9675;51.538;6.728;2022-12-18T08:14:35;102437.63;;;-4.81;100.00
19086;BME280;9675;51.538;6.728;2022-12-18T08:17:02;102425.75;;;-4.82;100.00
19086;BME280;9675;51.538;6.728;2022-12-18T08:19:31;102410.97;;;-4.86;100.00
19086;BME280;9675;51.538;6.728;2022-12-18T08:21:58;102415.69;;;-4.82;100.00
19086;BME280;9675;51.538;6.728;2022-12-18T08:24:25;102418.94;;;-4.83;100.00
19086;BME280;9675;51.538;6.728;2022-12-18T08:26:53;102410.50;;;-4.83;100.00
19086;BME280;9675;51.538;6.728;2022-12-18T08:29:20;102404.78;;;-4.82;100.00
19086;BME280;9675;51.538;6.728;2022-12-18T08:31:47;102392.00;;;-4.84;100.00
19086;BME280;9675;51.538;6.728;2022-12-18T08:34:14;102395.59;;;-4.82;100.00
19086;BME280;9675;51.538;6.728;2022-12-18T08:36:42;102388.78;;;-4.83;100.00
19086;BME280;9675;51.538;6.728;2022-12-18T08:39:12;102393.81;;;-4.83;100.00
19086;BME280;9675;51.538;6.728;2022-12-18T08:41:39;102394.50;;;-4.84;100.00
19086;BME280;9675;51.538;6.728;2022-12-18T08:44:07;102398.63;;;-4.84;100.00
19086;BME280;9675;51.538;6.728;2022-12-18T08:46:52;102402.53;;;-4.86;100.00
19086;BME280;9675;51.538;6.728;2022-12-18T08:49:20;102404.84;;;-4.88;100.00
19086;BME280;9675;51.538;6.728;2022-12-18T08:51:53;102410.78;;;-4.87;100.00
19086;BME280;9675;51.538;6.728;2022-12-18T08:54:21;102405.75;;;-4.87;100.00
19086;BME280;9675;51.538;6.728;2022-12-18T08:56:48;102401.44;;;-4.88;100.00
19086;BME280;9675;51.538;6.728;2022-12-18T08:59:16;102395.28;;;-4.90;100.00
19086;BME280;9675;51.538;6.728;2022-12-18T09:01:44;102401.22;;;-4.90;100.00
19086;BME280;9675;51.538;6.728;2022-12-18T09:04:11;102393.97;;;-4.94;100.00
19086;BME280;9675;51.538;6.728;2022-12-18T09:06:40;102387.63;;;-4.97;100.00
19086;BME280;9675;51.538;6.728;2022-12-18T09:09:09;102378.78;;;-5.01;100.00
19086;BME280;9675;51.538;6.728;2022-12-18T09:11:37;102376.56;;;-5.05;100.00
19086;BME280;9675;51.538;6.728;2022-12-18T09:14:04;102377.25;;;-5.06;100.00
19086;BME280;9675;51.538;6.728;2022-12-18T09:16:32;102389.19;;;-5.10;100.00
19086;BME280;9675;51.538;6.728;2022-12-18T09:19:02;102389.25;;;-5.16;100.00
19086;BME280;9675;51.538;6.728;2022-12-18T09:21:31;102388.06;;;-5.13;100.00
19086;BME280;9675;51.538;6.728;2022-12-18T09:23:59;102386.28;;;-5.13;100.00
19086;BME280;9675;51.538;6.728;2022-12-18T09:26:28;102383.75;;;-5.13;100.00
19086;BME280;9675;51.538;6.728;2022-12-18T09:28:56;102383.25;;;-5.11;100.00
19086;BME280;9675;51.538;6.728;2022-12-18T09:31:24;102383.25;;;-5.11;100.00
19086;BME280;9675;51.538;6.728;2022-12-18T09:33:51;102383.69;;;-5.08;100.00
19086;BME280;9675;51.538;6.728;2022-12-18T09:36:19;102398.25;;;-5.05;100.00
19086;BME280;9675;51.538;6.728;2022-12-18T09:38:46;102393.44;;;-5.04;100.00
19086;BME280;9675;51.538;6.728;2022-12-18T09:41:42;102398.16;;;-5.00;100.00
19086;BME280;9675;51.538;6.728;2022-12-18T09:44:19;102381.72;;;-4.98;100.00
19086;BME280;9675;51.538;6.728;2022-12-18T09:46:56;102379.59;;;-4.95;100.00
19086;BME280;9675;51.538;6.728;2022-12-18T09:49:30;102367.88;;;-4.89;100.00
19086;BME280;9675;51.538;6.728;2022-12-18T09:52:03;102371.00;;;-4.84;100.00
19086;BME280;9675;51.538;6.728;2022-12-18T09:54:36;102360.44;;;-4.82;100.00
19086;BME280;9675;51.538;6.728;2022-12-18T09:57:13;102353.34;;;-4.79;100.00
19086;BME280;9675;51.538;6.728;2022-12-18T09:59:42;102360.34;;;-4.76;100.00
19086;BME280;9675;51.538;6.728;2022-12-18T10:02:15;102357.75;;;-4.71;100.00
19086;BME280;9675;51.538;6.728;2022-12-18T10:04:52;102355.66;;;-4.67;100.00
19086;BME280;9675;51.538;6.728;2022-12-18T10:07:30;102357.88;;;-4.63;100.00
19086;BME280;9675;51.538;6.728;2022-12-18T10:10:10;102348.66;;;-4.57;100.00
19086;BME280;9675;51.538;6.728;2022-12-18T10:12:47;102350.84;;;-4.53;100.00
19086;BME280;9675;51.538;6.728;2022-12-18T10:15:28;102346.22;;;-4.50;100.00
19086;BME280;9675;51.538;6.728;2022-12-18T10:18:15;102349.16;;;-4.47;100.00
19086;BME280;9675;51.538;6.728;2022-12-18T10:20:51;102339.50;;;-4.44;100.00
19086;BME280;9675;51.538;6.728;2022-12-18T10:23:26;102335.97;;;-4.39;100.00
19086;BME280;9675;51.538;6.728;2022-12-18T10:26:00;102323.84;;;-4.36;100.00
19086;BME280;9675;51.538;6.728;2022-12-18T10:28:31;102321.72;;;-4.33;100.00
19086;BME280;9675;51.538;6.728;2022-12-18T10:30:59;102312.94;;;-4.30;100.00
19086;BME280;9675;51.538;6.728;2022-12-18T10:33:30;102312.25;;;-4.29;100.00
19086;BME280;9675;51.538;6.728;2022-12-18T10:35:58;102305.13;;;-4.25;100.00
19086;BME280;9675;51.538;6.728;2022-12-18T10:38:28;102309.63;;;-4.23;100.00
19086;BME280;9675;51.538;6.728;2022-12-18T10:41:00;102306.44;;;-4.22;100.00
19086;BME280;9675;51.538;6.728;2022-12-18T10:43:31;102307.94;;;-4.17;100.00
19086;BME280;9675;51.538;6.728;2022-12-18T10:46:14;102304.00;;;-4.15;100.00
19086;BME280;9675;51.538;6.728;2022-12-18T10:48:53;102294.72;;;-4.09;100.00
19086;BME280;9675;51.538;6.728;2022-12-18T10:51:25;102282.88;;;-4.10;100.00
19086;BME280;9675;51.538;6.728;2022-12-18T10:53:57;102277.13;;;-4.09;100.00
19086;BME280;9675;51.538;6.728;2022-12-18T10:56:29;102268.38;;;-4.05;100.00
19086;BME280;9675;51.538;6.728;2022-12-18T10:59:01;102282.34;;;-3.95;100.00
19086;BME280;9675;51.538;6.728;2022-12-18T11:01:46;102278.13;;;-3.89;100.00
19086;BME280;9675;51.538;6.728;2022-12-18T11:04:19;102267.31;;;-3.88;100.00
19086;BME280;9675;51.538;6.728;2022-12-18T11:06:57;102267.72;;;-3.84;100.00
19086;BME280;9675;51.538;6.728;2022-12-18T11:09:26;102264.50;;;-3.83;100.00
19086;BME280;9675;51.538;6.728;2022-12-18T11:11:57;102263.06;;;-3.81;100.00
19086;BME280;9675;51.538;6.728;2022-12-18T11:14:29;102253.00;;;-3.81;100.00
19086;BME280;9675;51.538;6.728;2022-12-18T11:16:59;102252.69;;;-3.77;100.00
19086;BME280;9675;51.538;6.728;2022-12-18T11:19:33;102249.69;;;-3.75;100.00
19086;BME280;9675;51.538;6.728;2022-12-18T11:22:16;102228.06;;;-3.80;100.00
19086;BME280;9675;51.538;6.728;2022-12-18T11:24:55;102243.63;;;-3.70;100.00
19086;BME280;9675;51.538;6.728;2022-12-18T11:27:23;102247.22;;;-3.68;100.00
19086;BME280;9675;51.538;6.728;2022-12-18T11:29:52;102229.31;;;-3.64;100.00
19086;BME280;9675;51.538;6.728;2022-12-18T11:32:33;102232.41;;;-3.59;100.00
19086;BME280;9675;51.538;6.728;2022-12-18T11:35:13;102227.75;;;-3.56;100.00
19086;BME280;9675;51.538;6.728;2022-12-18T11:37:47;102219.88;;;-3.52;100.00
19086;BME280;9675;51.538;6.728;2022-12-18T11:40:22;102214.69;;;-3.47;100.00
19086;BME280;9675;51.538;6.728;2022-12-18T11:43:01;102204.50;;;-3.41;100.00
19086;BME280;9675;51.538;6.728;2022-12-18T11:45:34;102188.91;;;-3.38;100.00
19086;BME280;9675;51.538;6.728;2022-12-18T11:48:14;102200.66;;;-3.32;100.00
19086;BME280;9675;51.538;6.728;2022-12-18T11:50:49;102197.59;;;-3.29;100.00
19086;BME280;9675;51.538;6.728;2022-12-18T11:53:19;102194.56;;;-3.27;100.00
19086;BME280;9675;51.538;6.728;2022-12-18T11:56:12;102192.63;;;-3.22;100.00
19086;BME280;9675;51.538;6.728;2022-12-18T11:58:51;102200.75;;;-3.18;100.00
19086;BME280;9675;51.538;6.728;2022-12-18T12:01:39;102199.69;;;-3.13;100.00
19086;BME280;9675;51.538;6.728;2022-12-18T12:04:36;102195.44;;;-3.07;100.00
19086;BME280;9675;51.538;6.728;2022-12-18T12:07:25;102203.22;;;-2.98;100.00
19086;BME280;9675;51.538;6.728;2022-12-18T12:10:10;102199.44;;;-2.94;100.00
19086;BME280;9675;51.538;6.728;2022-12-18T12:13:01;102187.97;;;-2.92;100.00
19086;BME280;9675;51.538;6.728;2022-12-18T12:15:43;102192.16;;;-2.86;100.00
19086;BME280;9675;51.538;6.728;2022-12-18T12:18:27;102185.16;;;-2.81;100.00
19086;BME280;9675;51.538;6.728;2022-12-18T12:21:03;102175.06;;;-2.81;100.00
19086;BME280;9675;51.538;6.728;2022-12-18T12:23:45;102166.66;;;-2.75;100.00
19086;BME280;9675;51.538;6.728;2022-12-18T12:26:25;102163.78;;;-2.71;100.00
19086;BME280;9675;51.538;6.728;2022-12-18T12:29:27;102168.69;;;-2.65;100.00
19086;BME280;9675;51.538;6.728;2022-12-18T12:32:20;102174.97;;;-2.62;100.00
19086;BME280;9675;51.538;6.728;2022-12-18T12:35:11;102177.69;;;-2.60;100.00
19086;BME280;9675;51.538;6.728;2022-12-18T12:37:50;102162.94;;;-2.57;100.00
19086;BME280;9675;51.538;6.728;2022-12-18T12:40:26;102156.47;;;-2.55;100.00
19086;BME280;9675;51.538;6.728;2022-12-18T12:42:58;102150.88;;;-2.52;100.00
19086;BME280;9675;51.538;6.728;2022-12-18T12:45:47;102138.66;;;-2.49;100.00
19086;BME280;9675;51.538;6.728;2022-12-18T12:48:27;102142.44;;;-2.46;100.00
19086;BME280;9675;51.538;6.728;2022-12-18T12:51:02;102135.59;;;-2.47;100.00
19086;BME280;9675;51.538;6.728;2022-12-18T12:53:36;102146.44;;;-2.41;100.00
19086;BME280;9675;51.538;6.728;2022-12-18T12:56:05;102154.56;;;-2.36;100.00
19086;BME280;9675;51.538;6.728;2022-12-18T12:58:41;102157.47;;;-2.33;100.00
19086;BME280;9675;51.538;6.728;2022-12-18T13:01:20;102146.81;;;-2.31;100.00
19086;BME280;9675;51.538;6.728;2022-12-18T13:04:02;102146.47;;;-2.27;100.00
19086;BME280;9675;51.538;6.728;2022-12-18T13:06:44;102147.00;;;-2.22;100.00
19086;BME280;9675;51.538;6.728;2022-12-18T13:09:12;102141.47;;;-2.20;100.00
19086;BME280;9675;51.538;6.728;2022-12-18T13:11:42;102135.69;;;-2.19;100.00
19086;BME280;9675;51.538;6.728;2022-12-18T13:14:31;102127.38;;;-2.18;100.00